Rorichmoor — V2BV7 — position and weather

sailwx.info

Track history (hours):
 
Tides and Currents Weather Stations Pressure Air Temp Water Temp Dewpoint Dewpoint Depression Visibility Wind Speed Wind Dir Waves Ship Positions

Rorichmoor

Last reported at 2017-Jun-27 22:42 UTC. Time now 2017-Jun-29 07:25 UTC.
Position N 37°25' E 003°51'.

Length 80 m; draft 3.1 m.

Type: Cargo ship. MMSI: 304938000.

Date/timePositionNaut miles runAvg speedWind from/ knotsBaromVisibWave heightAir tempDewpointWater temp
2017-Jun-27 22:42N 37°25' E 003°51'12 9.3
2017-Jun-27 21:22N 37°31' E 003°38'128 9.4
2017-Jun-27 07:44N 38°37' E 001°17'2 9.6
2017-Jun-27 07:30N 38°38' E 001°15'5 9.5
2017-Jun-27 07:00N 38°41' E 001°11'35 1.0
2017-Jun-25 18:43N 38°39' E 000°25'310.0
2017-Jun-25 18:28N 38°37' E 000°24'5 9.8
2017-Jun-25 18:00N 38°33' E 000°21'18 9.6
2017-Jun-25 16:06N 38°18' E 000°08'12 9.3
2017-Jun-25 14:47N 38°08' W 000°01'3 9.3
2017-Jun-25 14:28N 38°06' W 000°03'22 9.1
2017-Jun-25 12:05N 37°47' W 000°18'2 9.2
2017-Jun-25 11:54N 37°46' W 000°19'4 9.3
2017-Jun-25 11:30N 37°43' W 000°22'5 9.5
2017-Jun-25 10:59N 37°39' W 000°25'5 9.4
2017-Jun-25 10:30N 37°35' W 000°29'5 9.5
2017-Jun-25 09:59N 37°32' W 000°33'5 9.7
2017-Jun-25 09:27N 37°28' W 000°37'6 9.6
2017-Jun-25 08:51N 37°24' W 000°43'3 9.5
2017-Jun-25 08:29N 37°22' W 000°46'5 9.5
2017-Jun-25 07:55N 37°18' W 000°52'4 9.3
2017-Jun-25 07:30N 37°16' W 000°55'6 9.6
2017-Jun-25 06:54N 37°12' W 001°00'4 9.6
2017-Jun-25 06:27N 37°09' W 001°04'8 9.3
2017-Jun-25 05:36N 37°04' W 001°12'1 9.2
2017-Jun-25 05:30N 37°03' W 001°13'212 9.5
2017-Jun-24 07:14N 35°58' W 005°24'9110.1
2017-Jun-23 22:15N 34°53' W 006°42'  
2017-Jun-19 21:14N 36°45' W 009°30'4 8.5
2017-Jun-19 20:46N 36°48' W 009°32'23 8.7
2017-Jun-19 18:04N 37°11' W 009°41'1 9.0
2017-Jun-19 18:00N 37°11' W 009°41'41 8.9
2017-Jun-19 13:20N 37°52' W 009°53'9 8.8
2017-Jun-19 12:17N 38°01' W 009°55'2 8.9
2017-Jun-19 12:00N 38°03' W 009°56'4 8.7
2017-Jun-19 11:30N 38°07' W 009°58'4 8.8
2017-Jun-19 11:00N 38°11' W 009°59'5 9.1
2017-Jun-19 10:30N 38°16' W 009°60'4 8.8
2017-Jun-19 10:00N 38°20' W 010°01'27 9.0
2017-Jun-19 06:58N 38°47' W 010°07'5 9.0
2017-Jun-19 06:24N 38°52' W 010°07'3 8.8
2017-Jun-19 06:00N 38°56' W 010°07'4 8.6
2017-Jun-19 05:30N 39°00' W 010°07'4 8.6
2017-Jun-19 05:00N 39°04' W 010°07'4 9.0
2017-Jun-19 04:30N 39°09' W 010°07'4 8.7
2017-Jun-19 04:00N 39°13' W 010°07'5 9.7
2017-Jun-19 03:30N 39°18' W 010°07'5 9.3
2017-Jun-19 03:00N 39°23' W 010°07'5 9.1
2017-Jun-19 02:30N 39°27' W 010°07'5 9.2
2017-Jun-19 02:00N 39°32' W 010°07'4 8.9
2017-Jun-19 01:30N 39°36' W 010°07'5 9.1
2017-Jun-19 01:00N 39°41' W 010°07'5 9.1
2017-Jun-19 00:30N 39°45' W 010°07'5 9.0
2017-Jun-19 00:00N 39°50' W 010°07'5 9.0
2017-Jun-18 23:29N 39°55' W 010°07'7 9.4
2017-Jun-18 22:45N 40°01' W 010°07'2 8.7
2017-Jun-18 22:30N 40°04' W 010°07'5 9.3
2017-Jun-18 21:59N 40°08' W 010°07'4 8.8
2017-Jun-18 21:30N 40°13' W 010°07'5 9.0
2017-Jun-18 21:00N 40°17' W 010°07'6 8.9
2017-Jun-18 20:21N 40°23' W 010°08'3 9.3
2017-Jun-18 19:59N 40°26' W 010°08'5 9.4
2017-Jun-18 19:27N 40°31' W 010°08'7 9.4
2017-Jun-18 18:45N 40°38' W 010°07'2 9.3
2017-Jun-18 18:30N 40°40' W 010°07'5 9.2
2017-Jun-18 18:00N 40°45' W 010°07'5 9.3
2017-Jun-18 17:28N 40°50' W 010°07'5 9.3
2017-Jun-18 16:55N 40°55' W 010°07'44 9.5
2017-Jun-18 12:20N 41°38' W 010°07'  
Track history (hours):
 
Tides and Currents Weather Stations Pressure Air Temp Water Temp Dewpoint Dewpoint Depression Visibility Wind Speed Wind Dir Waves Ship Positions

Rorichmoor

Last reported at 2017-Jun-27 22:42 UTC. Time now 2017-Jun-29 07:25 UTC.
Position N 37°25' E 003°51'.

Length 80 m; draft 3.1 m.

Type: Cargo ship. MMSI: 304938000.

Date/timePositionNaut miles runAvg speedWind from/ knotsBaromVisibWave heightAir tempDewpointWater temp
2017-Jun-27 22:42N 37°25' E 003°51'12 9.3
2017-Jun-27 21:22N 37°31' E 003°38'128 9.4
2017-Jun-27 07:44N 38°37' E 001°17'2 9.6
2017-Jun-27 07:30N 38°38' E 001°15'5 9.5
2017-Jun-27 07:00N 38°41' E 001°11'35 1.0
2017-Jun-25 18:43N 38°39' E 000°25'310.0
2017-Jun-25 18:28N 38°37' E 000°24'5 9.8
2017-Jun-25 18:00N 38°33' E 000°21'18 9.6
2017-Jun-25 16:06N 38°18' E 000°08'12 9.3
2017-Jun-25 14:47N 38°08' W 000°01'3 9.3
2017-Jun-25 14:28N 38°06' W 000°03'22 9.1
2017-Jun-25 12:05N 37°47' W 000°18'2 9.2
2017-Jun-25 11:54N 37°46' W 000°19'4 9.3
2017-Jun-25 11:30N 37°43' W 000°22'5 9.5
2017-Jun-25 10:59N 37°39' W 000°25'5 9.4
2017-Jun-25 10:30N 37°35' W 000°29'5 9.5
2017-Jun-25 09:59N 37°32' W 000°33'5 9.7
2017-Jun-25 09:27N 37°28' W 000°37'6 9.6
2017-Jun-25 08:51N 37°24' W 000°43'3 9.5
2017-Jun-25 08:29N 37°22' W 000°46'5 9.5
2017-Jun-25 07:55N 37°18' W 000°52'4 9.3
2017-Jun-25 07:30N 37°16' W 000°55'6 9.6
2017-Jun-25 06:54N 37°12' W 001°00'4 9.6
2017-Jun-25 06:27N 37°09' W 001°04'8 9.3
2017-Jun-25 05:36N 37°04' W 001°12'1 9.2
2017-Jun-25 05:30N 37°03' W 001°13'212 9.5
2017-Jun-24 07:14N 35°58' W 005°24'9110.1
2017-Jun-23 22:15N 34°53' W 006°42'  
2017-Jun-19 21:14N 36°45' W 009°30'4 8.5
2017-Jun-19 20:46N 36°48' W 009°32'23 8.7
2017-Jun-19 18:04N 37°11' W 009°41'1 9.0
2017-Jun-19 18:00N 37°11' W 009°41'41 8.9
2017-Jun-19 13:20N 37°52' W 009°53'9 8.8
2017-Jun-19 12:17N 38°01' W 009°55'2 8.9
2017-Jun-19 12:00N 38°03' W 009°56'4 8.7
2017-Jun-19 11:30N 38°07' W 009°58'4 8.8
2017-Jun-19 11:00N 38°11' W 009°59'5 9.1
2017-Jun-19 10:30N 38°16' W 009°60'4 8.8
2017-Jun-19 10:00N 38°20' W 010°01'27 9.0
2017-Jun-19 06:58N 38°47' W 010°07'5 9.0
2017-Jun-19 06:24N 38°52' W 010°07'3 8.8
2017-Jun-19 06:00N 38°56' W 010°07'4 8.6
2017-Jun-19 05:30N 39°00' W 010°07'4 8.6
2017-Jun-19 05:00N 39°04' W 010°07'4 9.0
2017-Jun-19 04:30N 39°09' W 010°07'4 8.7
2017-Jun-19 04:00N 39°13' W 010°07'5 9.7
2017-Jun-19 03:30N 39°18' W 010°07'5 9.3
2017-Jun-19 03:00N 39°23' W 010°07'5 9.1
2017-Jun-19 02:30N 39°27' W 010°07'5 9.2
2017-Jun-19 02:00N 39°32' W 010°07'4 8.9
2017-Jun-19 01:30N 39°36' W 010°07'5 9.1
2017-Jun-19 01:00N 39°41' W 010°07'5 9.1
2017-Jun-19 00:30N 39°45' W 010°07'5 9.0
2017-Jun-19 00:00N 39°50' W 010°07'5 9.0
2017-Jun-18 23:29N 39°55' W 010°07'7 9.4
2017-Jun-18 22:45N 40°01' W 010°07'2 8.7
2017-Jun-18 22:30N 40°04' W 010°07'5 9.3
2017-Jun-18 21:59N 40°08' W 010°07'4 8.8
2017-Jun-18 21:30N 40°13' W 010°07'5 9.0
2017-Jun-18 21:00N 40°17' W 010°07'6 8.9
2017-Jun-18 20:21N 40°23' W 010°08'3 9.3
2017-Jun-18 19:59N 40°26' W 010°08'5 9.4
2017-Jun-18 19:27N 40°31' W 010°08'7 9.4
2017-Jun-18 18:45N 40°38' W 010°07'2 9.3
2017-Jun-18 18:30N 40°40' W 010°07'5 9.2
2017-Jun-18 18:00N 40°45' W 010°07'5 9.3
2017-Jun-18 17:28N 40°50' W 010°07'5 9.3
2017-Jun-18 16:55N 40°55' W 010°07'44 9.5
2017-Jun-18 12:20N 41°38' W 010°07'  

Dump ship's entire track history